This is the latest recevied weather packets stored in our database for station/object EW6780. If no packets are shown the sender has not sent any weather packets the latest 10 day(s).
| Time | Temp. | Humidity | Pressure | Rain* | Wind** | Luminosity | Snow |
|---|---|---|---|---|---|---|---|
| 1778204106 | 13.33° C | 50% | 1008.8 hPa | 0 mm | - | - | - |
| 1778203505 | 13.33° C | 49% | 1008.9 hPa | 0 mm | - | - | - |
| 1778202306 | 14.44° C | 44% | 1008.7 hPa | 0 mm | - | - | - |
| 1778202008 | 14.44° C | 44% | 1008.7 hPa | 0 mm | - | - | - |
| 1778200505 | 15° C | 40% | 1008.4 hPa | 0 mm | - | - | - |
| 1778198714 | 16.11° C | 37% | 1008 hPa | 0 mm | - | - | - |
| 1778197208 | 16.67° C | 36% | 1007.8 hPa | 0 mm | - | - | - |
| 1778196911 | 16.67° C | 34% | 1007.7 hPa | 0 mm | - | - | - |
| 1778195705 | 17.22° C | 34% | 1007.7 hPa | 0 mm | - | - | - |
| 1778195108 | 17.22° C | 34% | 1007.6 hPa | 0 mm | - | - | - |
| 1778193605 | 16.67° C | 36% | 1007.6 hPa | 0 mm | - | - | - |
| 1778193305 | 17.22° C | 35% | 1007.6 hPa | 0 mm | - | - | - |
| 1778192709 | 17.22° C | 35% | 1007.5 hPa | 0 mm | - | - | - |
| 1778192408 | 17.22° C | 34% | 1007.6 hPa | 0 mm | - | - | - |
| 1778191808 | 17.22° C | 34% | 1007.5 hPa | 0 mm | - | - | - |
| 1778190608 | 18.33° C | 34% | 1007.6 hPa | 0 mm | - | - | - |
| 1778190312 | 18.33° C | 34% | 1007.5 hPa | 0 mm | - | - | - |
| 1778189708 | 18.33° C | 33% | 1007.5 hPa | 0 mm | - | - | - |
| 1778189409 | 18.33° C | 34% | 1007.4 hPa | 0 mm | - | - | - |
| 1778189108 | 18.33° C | 34% | 1007.2 hPa | 0 mm | - | - | - |
| 1778187308 | 17.78° C | 35% | 1007.1 hPa | 0 mm | - | - | - |
| 1778186105 | 17.78° C | 36% | 1007.3 hPa | 0 mm | - | - | - |
| 1778185805 | 17.78° C | 34% | 1007.3 hPa | 0 mm | - | - | - |
| 1778184008 | 18.89° C | 35% | 1007.3 hPa | 0 mm | - | - | - |
| 1778183408 | 18.89° C | 35% | 1007.5 hPa | 0 mm | - | - | - |
* Rain latest hour (hover to see other rain measurements)
** Current wind speed in m/s (hover to see current wind gust speed)